Airport View

Enter AWOS ICAO identifier for current METAR.

ex. KFNL

KDEN 251120Z 01015KT 1 1/2SM -SN BR SCT005 OVC016 M09/M11 A3011 RMK AO2 P0000 T10941111 $

25 Oct 2020 11:42

Frequency: 125.600

Phone:

Other Area AWOS: KFTG - KBKF - KAPA - KEIK

KDEN 250858Z 2509/2612 36012G18KT 3SM -SN BR BKN008 OVC012 FM251900 01014KT 1SM -SN BR OVC008 TEMPO 2521/2601 1/2SM SN VV005 FM260100 03012KT 2SM -SN BR BKN008 OVC012